createdAt,value
2019-04-25T00:02:43.993Z,90.84
2019-04-25T00:05:14.790Z,91.50
2019-04-25T00:07:44.919Z,92.27
2019-04-25T00:10:14.464Z,92.44
2019-04-25T00:12:44.579Z,91.93
2019-04-25T00:15:14.591Z,92.14
2019-04-25T00:17:44.597Z,91.75
2019-04-25T00:20:14.741Z,91.10
2019-04-25T00:23:05.303Z,91.77
2019-04-25T00:25:52.813Z,91.85
2019-04-25T00:28:22.146Z,92.40
2019-04-25T00:30:52.278Z,92.80
2019-04-25T00:33:22.406Z,92.90
2019-04-25T00:35:52.711Z,93.46
2019-04-25T00:38:22.263Z,93.61
2019-04-25T00:40:52.490Z,93.50
2019-04-25T00:43:22.430Z,93.37
2019-04-25T00:45:52.668Z,93.14
2019-04-25T00:48:22.365Z,93.37
2019-04-25T00:50:54.377Z,93.74
2019-04-25T00:53:22.431Z,94.28
2019-04-25T00:55:52.511Z,94.52
2019-04-25T00:58:29.521Z,94.18
2019-04-25T01:01:21.801Z,93.34
2019-04-25T01:03:53.306Z,93.75
2019-04-25T01:06:22.095Z,93.73
2019-04-25T01:08:51.811Z,93.63
2019-04-25T01:11:22.111Z,94.06
2019-04-25T01:13:52.514Z,94.31
2019-04-25T01:16:22.108Z,94.51
2019-04-25T01:18:51.309Z,94.71
2019-04-25T01:21:20.487Z,93.95
2019-04-25T01:23:49.661Z,93.39
2019-04-25T01:26:18.926Z,94.09
2019-04-25T01:28:48.074Z,94.68
2019-04-25T01:31:19.805Z,94.63
2019-04-25T01:33:48.943Z,94.71
2019-04-25T01:36:37.046Z,95.09
2019-04-25T01:39:29.510Z,94.93
2019-04-25T01:42:23.664Z,94.33
2019-04-25T01:44:53.834Z,94.47
2019-04-25T01:47:24.763Z,94.51
2019-04-25T01:49:54.584Z,95.19
2019-04-25T01:52:24.940Z,95.50
2019-04-25T01:54:55.075Z,95.17
2019-04-25T01:57:26.042Z,94.75
2019-04-25T01:59:56.288Z,93.88
2019-04-25T02:02:27.133Z,93.24
2019-04-25T02:04:57.981Z,92.82
2019-04-25T02:07:27.113Z,93.41
2019-04-25T02:09:57.314Z,93.14
2019-04-25T02:12:38.394Z,92.50
2019-04-25T02:15:07.547Z,92.34
2019-04-25T02:17:36.685Z,92.42
2019-04-25T02:20:06.281Z,92.65
2019-04-25T02:22:35.776Z,93.29
2019-04-25T02:25:05.265Z,94.02
2019-04-25T02:27:34.438Z,94.24
2019-04-25T02:30:06.613Z,93.26
2019-04-25T02:32:37.207Z,92.36
2019-04-25T02:35:09.288Z,92.19
2019-04-25T02:37:36.990Z,91.87
2019-04-25T02:40:08.501Z,91.93
2019-04-25T02:42:38.001Z,91.85
2019-04-25T02:45:37.580Z,91.41
2019-04-25T02:48:34.280Z,91.34
2019-04-25T02:51:08.843Z,91.79
2019-04-25T02:53:40.956Z,91.71
2019-04-25T02:56:27.443Z,91.77
2019-04-25T02:58:40.976Z,91.00
2019-04-25T03:01:19.432Z,90.92
2019-04-25T03:03:44.972Z,90.94
2019-04-25T03:06:14.990Z,91.32
2019-04-25T03:08:45.025Z,91.95
2019-04-25T03:11:15.148Z,93.03
2019-04-25T03:13:44.497Z,93.35
2019-04-25T03:16:14.115Z,93.92
2019-04-25T03:18:58.918Z,93.54
2019-04-25T03:21:31.400Z,92.62
2019-04-25T03:24:01.485Z,91.92
2019-04-25T03:26:39.803Z,92.06
2019-04-25T03:29:01.597Z,92.46
2019-04-25T03:31:30.723Z,92.73
2019-04-25T03:34:02.223Z,92.75
2019-04-25T03:36:30.816Z,92.54
2019-04-25T03:39:00.843Z,92.17
2019-04-25T03:41:29.985Z,91.75
2019-04-25T03:43:59.153Z,91.65
2019-04-25T03:46:28.273Z,91.10
2019-04-25T03:48:57.431Z,90.91
2019-04-25T03:51:26.564Z,90.72
2019-04-25T03:53:55.678Z,89.77
2019-04-25T03:56:25.000Z,89.23
2019-04-25T03:58:54.536Z,88.92
2019-04-25T04:01:25.605Z,88.33
2019-04-25T04:03:54.777Z,88.34
2019-04-25T04:06:24.139Z,88.05
2019-04-25T04:08:53.885Z,87.90
2019-04-25T04:11:23.785Z,87.36
2019-04-25T04:13:53.793Z,86.84
2019-04-25T04:16:26.903Z,86.23
2019-04-25T04:18:57.437Z,86.17
2019-04-25T04:21:36.064Z,86.05
2019-04-25T04:24:14.164Z,85.84
2019-04-25T04:26:46.121Z,85.63
2019-04-25T04:29:15.346Z,85.75
2019-04-25T04:31:44.652Z,85.50
2019-04-25T04:34:14.693Z,85.97
2019-04-25T04:36:46.571Z,85.81
2019-04-25T04:39:16.873Z,85.76
2019-04-25T04:41:46.482Z,85.60
2019-04-25T04:44:16.447Z,85.82
2019-04-25T04:46:45.616Z,85.85
2019-04-25T04:49:15.325Z,86.71
2019-04-25T04:51:44.560Z,87.17
2019-04-25T04:54:14.643Z,87.49
2019-04-25T04:56:44.578Z,87.69
2019-04-25T04:59:14.672Z,87.74
2019-04-25T05:02:16.527Z,88.01
2019-04-25T05:05:03.578Z,88.24
2019-04-25T05:07:58.047Z,88.60
2019-04-25T05:10:27.220Z,88.26
2019-04-25T05:12:56.404Z,88.30
2019-04-25T05:15:25.528Z,88.74
2019-04-25T05:17:56.126Z,88.20
2019-04-25T05:20:25.245Z,88.00
2019-04-25T05:22:55.040Z,88.30
2019-04-25T05:25:24.783Z,88.62
2019-04-25T05:28:00.680Z,88.41
2019-04-25T05:30:31.146Z,88.00
2019-04-25T05:33:00.318Z,87.49
2019-04-25T05:35:29.522Z,86.73
2019-04-25T05:37:58.678Z,86.02
2019-04-25T05:40:28.004Z,85.78
2019-04-25T05:43:05.930Z,85.40
2019-04-25T05:45:35.039Z,85.26
2019-04-25T05:48:06.069Z,84.33
2019-04-25T05:50:35.274Z,83.70
2019-04-25T05:53:04.531Z,82.94
2019-04-25T05:55:34.291Z,82.23
2019-04-25T05:58:03.991Z,81.36
2019-04-25T06:00:34.312Z,80.34
2019-04-25T06:03:03.867Z,79.50
2019-04-25T06:05:33.641Z,78.65
2019-04-25T06:08:04.385Z,77.70
2019-04-25T06:10:53.847Z,76.60
2019-04-25T06:13:51.182Z,75.80
2019-04-25T06:16:27.013Z,74.71
2019-04-25T06:19:19.699Z,74.21
2019-04-25T06:21:49.248Z,73.42
2019-04-25T06:24:42.547Z,72.19
2019-04-25T06:27:31.772Z,72.17
2019-04-25T06:30:15.930Z,71.03
2019-04-25T06:32:45.263Z,71.32
2019-04-25T06:35:14.895Z,67.59
2019-04-25T06:37:44.049Z,68.61
2019-04-25T06:40:14.039Z,67.09
2019-04-25T06:42:43.842Z,67.27
2019-04-25T06:45:38.921Z,66.04
2019-04-25T06:48:29.797Z,65.28
2019-04-25T06:50:58.948Z,63.87
2019-04-25T06:53:28.426Z,61.70
2019-04-25T06:55:57.636Z,62.02
2019-04-25T06:58:27.549Z,62.24
2019-04-25T07:01:00.815Z,61.28
2019-04-25T07:03:29.432Z,60.42
2019-04-25T07:05:58.988Z,59.66
2019-04-25T07:08:29.071Z,58.42
2019-04-25T07:10:58.283Z,58.33
2019-04-25T07:13:28.363Z,58.32
2019-04-25T07:15:57.592Z,58.49
2019-04-25T07:18:31.208Z,56.85
2019-04-25T07:20:57.800Z,56.39
2019-04-25T07:23:26.943Z,55.82
2019-04-25T07:26:03.748Z,55.67
2019-04-25T07:28:54.892Z,55.25
2019-04-25T07:31:44.491Z,56.42
2019-04-25T07:34:19.367Z,57.94
2019-04-25T07:36:48.546Z,54.58
2019-04-25T07:39:17.880Z,54.58
2019-04-25T07:41:47.124Z,53.54
2019-04-25T07:44:16.277Z,52.30
2019-04-25T07:46:45.457Z,51.69
2019-04-25T07:49:14.593Z,51.71
2019-04-25T07:51:45.349Z,51.19
2019-04-25T07:54:14.605Z,51.56
2019-04-25T07:56:44.052Z,51.84
2019-04-25T07:59:13.912Z,50.96
2019-04-25T08:01:43.689Z,48.98
2019-04-25T08:04:13.769Z,48.42
2019-04-25T08:06:44.515Z,49.27
2019-04-25T08:09:15.328Z,50.02
2019-04-25T08:11:44.899Z,49.97
2019-04-25T08:14:19.227Z,47.77
2019-04-25T08:16:51.534Z,45.82
2019-04-25T08:19:20.933Z,45.63
2019-04-25T08:21:50.573Z,46.43
2019-04-25T08:24:20.273Z,47.33
2019-04-25T08:26:49.554Z,47.21
2019-04-25T08:29:18.709Z,46.21
2019-04-25T08:31:47.890Z,45.04
2019-04-25T08:34:17.060Z,45.87
2019-04-25T08:36:46.257Z,46.07
2019-04-25T08:39:15.452Z,44.96
2019-04-25T08:41:45.747Z,42.04
2019-04-25T08:44:15.008Z,42.69
2019-04-25T08:46:48.443Z,41.68
2019-04-25T08:49:45.770Z,42.90
2019-04-25T08:52:14.470Z,42.51
2019-04-25T08:54:54.637Z,41.10
2019-04-25T08:57:44.020Z,40.84
2019-04-25T09:00:25.447Z,41.42
2019-04-25T09:02:58.718Z,41.28
2019-04-25T09:05:46.258Z,40.79
2019-04-25T09:08:15.648Z,40.70
2019-04-25T09:10:45.036Z,41.98
2019-04-25T09:13:14.148Z,41.29
2019-04-25T09:15:45.456Z,40.96
2019-04-25T09:18:14.206Z,37.65
2019-04-25T09:20:46.361Z,37.23
2019-04-25T09:23:14.472Z,37.21
2019-04-25T09:25:44.755Z,36.00
2019-04-25T09:28:14.521Z,36.14
2019-04-25T09:30:44.840Z,33.63
2019-04-25T09:33:14.597Z,33.77
2019-04-25T09:35:45.733Z,32.74
2019-04-25T09:38:14.768Z,31.94
2019-04-25T09:40:44.522Z,31.10
2019-04-25T09:43:14.641Z,30.38
2019-04-25T09:46:05.726Z,30.51
2019-04-25T09:48:44.307Z,30.51
2019-04-25T09:51:33.589Z,29.90
2019-04-25T09:54:24.949Z,29.63
2019-04-25T09:56:57.215Z,30.29
2019-04-25T09:59:29.863Z,31.08
2019-04-25T10:01:57.702Z,31.61
2019-04-25T10:04:26.851Z,30.98
2019-04-25T10:06:56.206Z,29.58
2019-04-25T10:09:26.089Z,28.45
2019-04-25T10:11:55.359Z,29.11
2019-04-25T10:14:55.068Z,28.15
2019-04-25T10:17:24.274Z,28.62
2019-04-25T10:19:53.433Z,28.44
2019-04-25T10:22:23.741Z,27.34
2019-04-25T10:25:00.252Z,26.20
2019-04-25T10:27:24.234Z,27.52
2019-04-25T10:29:56.945Z,27.01
2019-04-25T10:32:24.381Z,26.34
2019-04-25T10:34:53.536Z,26.96
2019-04-25T10:37:23.073Z,27.36
2019-04-25T10:39:54.228Z,26.81
2019-04-25T10:42:23.926Z,26.36
2019-04-25T10:44:56.150Z,26.88
2019-04-25T10:47:24.219Z,26.23
2019-04-25T10:49:55.333Z,26.14
2019-04-25T10:52:24.259Z,25.34
2019-04-25T10:54:54.287Z,26.64
2019-04-25T10:57:24.946Z,25.22
2019-04-25T11:00:05.929Z,24.59
2019-04-25T11:02:26.587Z,24.32
2019-04-25T11:05:01.301Z,24.41
2019-04-25T11:07:30.456Z,24.47
2019-04-25T11:09:59.662Z,24.09
2019-04-25T11:12:28.809Z,24.51
2019-04-25T11:14:57.985Z,24.09
2019-04-25T11:17:27.149Z,23.29
2019-04-25T11:19:56.327Z,23.02
2019-04-25T11:22:25.540Z,23.48
2019-04-25T11:24:55.083Z,24.69
2019-04-25T11:27:24.668Z,25.70
2019-04-25T11:30:08.257Z,24.41
2019-04-25T11:32:27.499Z,22.70
2019-04-25T11:34:57.343Z,21.49
2019-04-25T11:37:29.419Z,21.49
2019-04-25T11:40:04.617Z,21.68
2019-04-25T11:42:33.933Z,21.89
2019-04-25T11:45:05.923Z,21.53
2019-04-25T11:47:35.577Z,22.24
2019-04-25T11:50:05.222Z,22.96
2019-04-25T11:52:34.747Z,22.53
2019-04-25T11:55:04.232Z,22.47
2019-04-25T11:57:33.448Z,22.05
2019-04-25T12:00:04.214Z,22.17
2019-04-25T12:02:34.371Z,22.88
2019-04-25T12:05:03.549Z,23.05
2019-04-25T12:07:33.825Z,22.82
2019-04-25T12:10:04.373Z,22.86
2019-04-25T12:12:34.740Z,22.56
2019-04-25T12:15:04.864Z,22.92
2019-04-25T12:17:35.301Z,23.19
2019-04-25T12:20:04.669Z,23.22
2019-04-25T12:22:34.336Z,23.24
2019-04-25T12:25:04.662Z,23.70
2019-04-25T12:27:33.863Z,23.86
2019-04-25T12:30:03.884Z,23.87
2019-04-25T12:32:35.284Z,23.58
2019-04-25T12:35:06.211Z,22.92
2019-04-25T12:37:35.469Z,24.16
2019-04-25T12:40:07.245Z,23.60
2019-04-25T12:42:36.410Z,22.99
2019-04-25T12:45:37.111Z,23.13
2019-04-25T12:48:08.203Z,22.73
2019-04-25T12:50:37.377Z,22.90
2019-04-25T12:53:06.817Z,23.00
2019-04-25T12:55:35.974Z,23.51
2019-04-25T12:58:05.864Z,23.90
2019-04-25T13:00:47.271Z,23.23
2019-04-25T13:03:06.902Z,22.47
2019-04-25T13:05:36.205Z,23.41
2019-04-25T13:08:05.568Z,24.42
2019-04-25T13:10:35.537Z,24.02
2019-04-25T13:13:04.937Z,23.10
2019-04-25T13:15:34.756Z,22.58
2019-04-25T13:18:04.387Z,22.62
2019-04-25T13:20:33.822Z,22.48
2019-04-25T13:23:03.574Z,23.02
2019-04-25T13:25:34.272Z,22.38
2019-04-25T13:28:25.243Z,22.50
2019-04-25T13:31:23.327Z,23.07
2019-04-25T13:34:01.524Z,22.91
2019-04-25T13:36:30.953Z,23.05
2019-04-25T13:39:00.176Z,23.11
2019-04-25T13:41:29.427Z,23.04
2019-04-25T13:43:58.942Z,22.43
2019-04-25T13:46:28.131Z,23.23
2019-04-25T13:48:57.281Z,23.63
2019-04-25T13:51:26.714Z,22.80
2019-04-25T13:53:55.905Z,23.12
2019-04-25T13:56:26.546Z,22.71
2019-04-25T13:58:56.051Z,23.09
2019-04-25T14:01:25.980Z,22.97
2019-04-25T14:03:55.640Z,22.38
2019-04-25T14:06:24.789Z,21.36
2019-04-25T14:08:54.060Z,21.46
2019-04-25T14:11:24.104Z,21.73
2019-04-25T14:13:53.401Z,21.02
2019-04-25T14:16:34.591Z,20.84
2019-04-25T14:19:34.732Z,20.61
2019-04-25T14:22:04.437Z,20.21
2019-04-25T14:24:35.686Z,20.08
2019-04-25T14:27:04.591Z,19.83
2019-04-25T14:29:34.807Z,19.36
2019-04-25T14:32:05.839Z,19.70
2019-04-25T14:34:35.017Z,19.82
2019-04-25T14:37:04.324Z,19.16
2019-04-25T14:39:33.512Z,18.82
2019-04-25T14:42:02.972Z,18.64
2019-04-25T14:44:32.350Z,18.21
2019-04-25T14:47:01.572Z,18.75
2019-04-25T14:49:30.754Z,18.98
2019-04-25T14:52:00.018Z,19.15
2019-04-25T14:54:36.097Z,18.95
2019-04-25T14:57:09.965Z,18.63
2019-04-25T14:59:39.579Z,17.54
2019-04-25T15:02:08.874Z,18.01
2019-04-25T15:04:38.054Z,17.84
2019-04-25T15:07:07.258Z,18.23
2019-04-25T15:09:36.575Z,17.88
2019-04-25T15:12:05.837Z,18.15
2019-04-25T15:14:35.072Z,18.34
2019-04-25T15:17:04.976Z,18.34
2019-04-25T15:19:34.148Z,18.11
2019-04-25T15:22:03.367Z,19.34
2019-04-25T15:24:32.785Z,19.79
2019-04-25T15:27:01.959Z,19.66
2019-04-25T15:29:31.148Z,19.44
2019-04-25T15:32:00.294Z,19.71
2019-04-25T15:34:35.979Z,20.08
2019-04-25T15:37:11.283Z,20.94
2019-04-25T15:39:47.976Z,21.56
2019-04-25T15:42:42.659Z,22.04
2019-04-25T15:45:43.106Z,22.52
2019-04-25T15:48:12.433Z,22.61
2019-04-25T15:50:41.669Z,22.63
2019-04-25T15:53:10.829Z,22.38
2019-04-25T15:55:40.789Z,22.40
2019-04-25T15:58:10.375Z,21.81
2019-04-25T16:00:39.630Z,21.70
2019-04-25T16:03:08.978Z,21.46
2019-04-25T16:05:38.469Z,21.53
2019-04-25T16:08:07.593Z,22.06
2019-04-25T16:10:37.178Z,22.18
2019-04-25T16:13:07.214Z,22.23
2019-04-25T16:15:36.413Z,22.19
2019-04-25T16:18:06.461Z,22.90
2019-04-25T16:20:35.796Z,22.49
2019-04-25T16:23:05.391Z,22.59
2019-04-25T16:25:35.421Z,22.31
2019-04-25T16:28:04.784Z,21.77
2019-04-25T16:30:34.566Z,21.40
2019-04-25T16:33:04.504Z,20.81
2019-04-25T16:35:33.668Z,20.66
2019-04-25T16:38:03.222Z,20.89
2019-04-25T16:40:32.404Z,21.27
2019-04-25T16:43:03.810Z,21.65
2019-04-25T16:45:33.858Z,21.56
2019-04-25T16:48:03.405Z,21.91
2019-04-25T16:50:34.221Z,22.31
2019-04-25T16:53:03.396Z,22.55
2019-04-25T16:55:32.865Z,22.74
2019-04-25T16:58:02.116Z,23.03
2019-04-25T17:00:53.115Z,23.21
2019-04-25T17:03:24.382Z,23.62
2019-04-25T17:05:53.603Z,32.09
2019-04-25T17:08:22.792Z,36.43
2019-04-25T17:10:51.956Z,40.32
2019-04-25T17:13:21.290Z,41.67
2019-04-25T17:16:03.686Z,42.29
2019-04-25T17:18:38.281Z,43.10
2019-04-25T17:21:11.600Z,43.71
2019-04-25T17:23:39.865Z,45.90
2019-04-25T17:26:09.518Z,46.32
2019-04-25T17:28:41.209Z,47.12
2019-04-25T17:31:30.019Z,47.98
2019-04-25T17:34:18.142Z,48.52
2019-04-25T17:36:53.688Z,48.79
2019-04-25T17:39:42.178Z,49.29
2019-04-25T17:42:11.440Z,49.74
2019-04-25T17:44:40.701Z,50.02
2019-04-25T17:47:09.897Z,50.00
2019-04-25T17:49:39.421Z,50.26
2019-04-25T17:52:08.522Z,50.69
2019-04-25T17:54:38.881Z,50.97
2019-04-25T17:57:08.246Z,51.59
2019-04-25T17:59:37.432Z,51.53
2019-04-25T18:02:06.698Z,51.76
2019-04-25T18:04:35.953Z,51.44
2019-04-25T18:07:05.702Z,51.36
2019-04-25T18:09:35.479Z,51.50
2019-04-25T18:12:05.465Z,51.01
2019-04-25T18:14:35.184Z,50.72
2019-04-25T18:17:04.617Z,50.72
2019-04-25T18:19:38.511Z,51.32
2019-04-25T18:22:23.795Z,51.03
2019-04-25T18:25:17.904Z,51.83
2019-04-25T18:28:10.776Z,50.99
2019-04-25T18:30:41.173Z,51.32
2019-04-25T18:33:41.811Z,50.85
2019-04-25T18:36:29.061Z,51.44
2019-04-25T18:39:15.194Z,53.25
2019-04-25T18:41:48.532Z,54.11
2019-04-25T18:44:18.044Z,54.85
2019-04-25T18:46:47.918Z,54.77
2019-04-25T18:49:17.138Z,55.46
2019-04-25T18:51:56.671Z,56.00
2019-04-25T18:54:29.165Z,56.67
2019-04-25T18:57:11.327Z,57.76
2019-04-25T19:00:05.702Z,57.93
2019-04-25T19:03:03.261Z,58.51
2019-04-25T19:05:42.846Z,58.23
2019-04-25T19:08:12.070Z,58.48
2019-04-25T19:10:41.339Z,59.17
2019-04-25T19:13:12.738Z,59.29
2019-04-25T19:15:41.518Z,58.98
2019-04-25T19:18:10.706Z,58.79
2019-04-25T19:20:40.008Z,59.34
2019-04-25T19:23:09.288Z,59.32
2019-04-25T19:25:40.146Z,59.34
2019-04-25T19:28:09.390Z,59.20
2019-04-25T19:30:38.664Z,59.11
2019-04-25T19:33:09.032Z,58.93
2019-04-25T19:35:39.510Z,58.74
2019-04-25T19:38:09.186Z,58.48
2019-04-25T19:40:52.491Z,58.27
2019-04-25T19:43:34.808Z,58.55
2019-04-25T19:46:03.983Z,59.03
2019-04-25T19:48:33.210Z,59.73
2019-04-25T19:51:02.395Z,59.89
2019-04-25T19:53:31.569Z,60.27
2019-04-25T19:56:00.869Z,59.98
2019-04-25T19:58:30.101Z,59.99
2019-04-25T20:00:59.285Z,60.25
2019-04-25T20:03:58.569Z,59.72
2019-04-25T20:07:05.084Z,60.20
2019-04-25T20:09:53.217Z,60.62
2019-04-25T20:12:23.226Z,60.51
2019-04-25T20:14:53.505Z,60.75
2019-04-25T20:17:22.813Z,61.41
2019-04-25T20:19:51.981Z,61.48
2019-04-25T20:22:21.158Z,61.48
2019-04-25T20:24:50.664Z,61.89
2019-04-25T20:27:20.164Z,61.95
2019-04-25T20:29:49.345Z,61.75
2019-04-25T20:32:18.553Z,61.69
2019-04-25T20:34:47.728Z,61.85
2019-04-25T20:37:16.883Z,62.20
2019-04-25T20:39:46.078Z,62.35
2019-04-25T20:42:15.253Z,62.78
2019-04-25T20:44:45.567Z,63.31
2019-04-25T20:47:15.449Z,63.27
2019-04-25T20:49:44.658Z,63.43
2019-04-25T20:52:13.841Z,63.49
2019-04-25T20:54:43.080Z,63.69
2019-04-25T20:57:12.227Z,63.90
2019-04-25T20:59:41.394Z,64.42
2019-04-25T21:02:10.695Z,64.79
2019-04-25T21:04:40.219Z,64.99
2019-04-25T21:07:09.478Z,65.24
2019-04-25T21:09:38.962Z,65.17
2019-04-25T21:12:08.370Z,65.28
2019-04-25T21:14:49.239Z,65.34
2019-04-25T21:17:22.582Z,65.62
2019-04-25T21:19:52.814Z,65.80
2019-04-25T21:22:22.092Z,66.05
2019-04-25T21:24:51.868Z,66.15
2019-04-25T21:27:21.076Z,66.60
2019-04-25T21:29:52.005Z,66.99
2019-04-25T21:32:22.722Z,67.17
2019-04-25T21:34:53.034Z,67.53
2019-04-25T21:37:22.293Z,67.84
2019-04-25T21:40:03.244Z,68.18
2019-04-25T21:42:57.996Z,68.56
2019-04-25T21:45:27.482Z,68.50
2019-04-25T21:47:56.907Z,68.71
2019-04-25T21:50:26.353Z,68.82
2019-04-25T21:52:55.603Z,68.93
2019-04-25T21:55:25.115Z,69.57
2019-04-25T21:57:55.846Z,69.80
2019-04-25T22:00:43.371Z,69.93
2019-04-25T22:03:13.515Z,70.03
2019-04-25T22:05:42.892Z,70.34
2019-04-25T22:08:12.419Z,70.52
2019-04-25T22:10:41.884Z,70.76
2019-04-25T22:13:16.932Z,70.93
2019-04-25T22:15:42.732Z,71.16
2019-04-25T22:18:11.924Z,71.37
2019-04-25T22:20:41.154Z,71.31
2019-04-25T22:23:10.592Z,71.50
2019-04-25T22:25:40.017Z,71.66
2019-04-25T22:28:09.342Z,71.67
2019-04-25T22:30:39.242Z,72.22
2019-04-25T22:33:30.139Z,72.15
2019-04-25T22:36:04.154Z,72.35
2019-04-25T22:38:33.318Z,72.32
2019-04-25T22:41:03.554Z,72.48
2019-04-25T22:43:35.026Z,72.73
2019-04-25T22:46:04.456Z,72.88
2019-04-25T22:48:49.229Z,72.84
2019-04-25T22:51:18.724Z,72.97
2019-04-25T22:53:48.478Z,73.37
2019-04-25T22:56:17.664Z,73.25
2019-04-25T22:58:47.041Z,73.17
2019-04-25T23:01:34.199Z,72.75
2019-04-25T23:04:08.017Z,72.93
2019-04-25T23:06:37.641Z,73.12
2019-04-25T23:09:08.190Z,73.17
2019-04-25T23:11:37.406Z,73.70
2019-04-25T23:14:07.146Z,73.65
2019-04-25T23:16:36.463Z,73.59
2019-04-25T23:19:05.690Z,73.69
2019-04-25T23:21:35.436Z,73.74
2019-04-25T23:24:05.485Z,73.68
2019-04-25T23:26:52.658Z,73.54
2019-04-25T23:29:21.826Z,73.20
2019-04-25T23:31:51.171Z,74.09
2019-04-25T23:34:20.637Z,74.96
2019-04-25T23:36:49.801Z,74.97
2019-04-25T23:39:19.224Z,75.49
2019-04-25T23:41:48.397Z,75.56
2019-04-25T23:44:17.534Z,75.47
2019-04-25T23:46:46.830Z,75.17
2019-04-25T23:49:16.990Z,75.17
2019-04-25T23:51:46.584Z,75.05
2019-04-25T23:54:15.721Z,74.84
2019-04-25T23:56:45.011Z,74.96
2019-04-25T23:59:14.421Z,75.99
